New Orleans, Louisiana
Traffic Map
Current Weather Conditions
New Orleans, Louisiana
Scattered Clouds
Scattered Clouds
84°
Feels Like: 91°
Wind Chill: 84° Ceiling: Unl
Heat Index: 91° Visibility: 10mi
Dew Point: 74° Wind: 13mph
Humidity: 72% Direction: 50° (NE)
Pressure: 29.98in Gusts: 0mph
Raw Report DataKNEW 301453Z 05011KT 10SM SCT027 29/23 A2998 RMK AO2 SLP147 T02890233 51010
Traffic Incident Summary
Active as of:
Severity:
Category:
InformationThere was an issue retrieving the traffic information for this location. Please try a different location or try again shortly.
Advertisements
Track Severe Weather on mobile